HKMO

Mombasa Moi International Airport

Mombasa, Kenya
METAR HKMO 140800Z 20008KT 9999 SCT021 BKN090 22/25 Q1020 NOSIG
Observed Flight Rules
Aug-14 @ 08:00 UTC (6 hours ago) Visual Flight Rules
Wind Visibility Clouds
200° at 8 knots 10,000+ meters
  • Scattered at 2,100' AGL
  • Broken at 9,000' AGL
Temperatures Readings
Current 22°C / 72°F
Dewpoint 25°C / 77°F
Humidity 120%
Altimeter 30.12" Hg
Pressure 1020 hPa
Elevation 55
METAR HKMO 140800Z 20008KT 9999 SCT021 BKN090 22/25 Q1020 NOSIG
Observed Flight Rules
Aug-14 @ 08:00 UTC
(6 hours ago)
VFR
Wind Visibility
200° at 8 knots 10,000+ meters
Clouds
  • Scattered at 2,100' AGL
  • Broken at 9,000' AGL
Temperature Dewpoint
22°C / 72°F 25°C / 77°F
Humidity Altimeter Pressure
120% 30.12" Hg 1020 hPa